sensor_id;sensor_type;location;lat;lon;timestamp;pressure;altitude;pressure_sealevel;temperature;humidity
46718;BME280;32448;44.960;-0.698;2023-07-13T00:01:46;101860.16;;;16.82;100.00
46718;BME280;32448;44.960;-0.698;2023-07-13T00:04:23;101862.84;;;16.86;100.00
46718;BME280;32448;44.960;-0.698;2023-07-13T00:06:58;101860.09;;;16.76;100.00
46718;BME280;32448;44.960;-0.698;2023-07-13T00:09:26;101865.38;;;16.76;100.00
46718;BME280;32448;44.960;-0.698;2023-07-13T00:11:56;101871.50;;;16.71;100.00
46718;BME280;32448;44.960;-0.698;2023-07-13T00:14:24;101867.94;;;16.66;100.00
46718;BME280;32448;44.960;-0.698;2023-07-13T00:16:52;101870.56;;;16.65;100.00
46718;BME280;32448;44.960;-0.698;2023-07-13T00:19:19;101867.78;;;16.54;100.00
46718;BME280;32448;44.960;-0.698;2023-07-13T00:21:46;101864.28;;;16.55;100.00
46718;BME280;32448;44.960;-0.698;2023-07-13T00:24:15;101863.34;;;16.50;100.00
46718;BME280;32448;44.960;-0.698;2023-07-13T00:26:43;101873.91;;;16.52;100.00
46718;BME280;32448;44.960;-0.698;2023-07-13T00:29:13;101874.75;;;16.45;100.00
46718;BME280;32448;44.960;-0.698;2023-07-13T00:31:40;101865.91;;;16.43;100.00
46718;BME280;32448;44.960;-0.698;2023-07-13T00:34:07;101867.56;;;16.31;100.00
46718;BME280;32448;44.960;-0.698;2023-07-13T00:36:35;101871.09;;;16.33;100.00
46718;BME280;32448;44.960;-0.698;2023-07-13T00:39:02;101869.25;;;16.28;100.00
46718;BME280;32448;44.960;-0.698;2023-07-13T00:41:31;101866.56;;;16.25;100.00
46718;BME280;32448;44.960;-0.698;2023-07-13T00:43:58;101867.44;;;16.21;100.00
46718;BME280;32448;44.960;-0.698;2023-07-13T00:46:27;101862.91;;;16.11;100.00
46718;BME280;32448;44.960;-0.698;2023-07-13T00:48:55;101864.66;;;16.10;100.00
46718;BME280;32448;44.960;-0.698;2023-07-13T00:51:25;101864.63;;;16.07;100.00
46718;BME280;32448;44.960;-0.698;2023-07-13T00:53:54;101854.03;;;16.04;100.00
46718;BME280;32448;44.960;-0.698;2023-07-13T00:56:25;101852.28;;;16.01;100.00
46718;BME280;32448;44.960;-0.698;2023-07-13T00:58:53;101856.63;;;15.99;100.00
46718;BME280;32448;44.960;-0.698;2023-07-13T01:01:20;101867.22;;;16.04;100.00
46718;BME280;32448;44.960;-0.698;2023-07-13T01:03:47;101861.91;;;16.02;100.00
46718;BME280;32448;44.960;-0.698;2023-07-13T01:06:14;101859.13;;;15.89;100.00
46718;BME280;32448;44.960;-0.698;2023-07-13T01:08:43;101867.06;;;15.90;100.00
46718;BME280;32448;44.960;-0.698;2023-07-13T01:11:11;101877.56;;;15.87;100.00
46718;BME280;32448;44.960;-0.698;2023-07-13T01:13:39;101876.56;;;15.78;100.00
46718;BME280;32448;44.960;-0.698;2023-07-13T01:16:11;101874.63;;;15.64;100.00
46718;BME280;32448;44.960;-0.698;2023-07-13T01:18:40;101878.06;;;15.60;100.00
46718;BME280;32448;44.960;-0.698;2023-07-13T01:21:07;101874.53;;;15.58;100.00
46718;BME280;32448;44.960;-0.698;2023-07-13T01:23:34;101878.97;;;15.62;100.00
46718;BME280;32448;44.960;-0.698;2023-07-13T01:26:01;101878.03;;;15.59;100.00
46718;BME280;32448;44.960;-0.698;2023-07-13T01:28:29;101874.41;;;15.52;100.00
46718;BME280;32448;44.960;-0.698;2023-07-13T01:30:57;101871.69;;;15.45;100.00
46718;BME280;32448;44.960;-0.698;2023-07-13T01:33:25;101879.63;;;15.46;100.00
46718;BME280;32448;44.960;-0.698;2023-07-13T01:35:52;101881.34;;;15.47;100.00
46718;BME280;32448;44.960;-0.698;2023-07-13T01:38:21;101872.56;;;15.45;100.00
46718;BME280;32448;44.960;-0.698;2023-07-13T01:40:53;101877.69;;;15.38;100.00
46718;BME280;32448;44.960;-0.698;2023-07-13T01:43:23;101875.03;;;15.36;100.00
46718;BME280;32448;44.960;-0.698;2023-07-13T01:45:51;101879.31;;;15.28;100.00
46718;BME280;32448;44.960;-0.698;2023-07-13T01:48:18;101880.09;;;15.21;100.00
46718;BME280;32448;44.960;-0.698;2023-07-13T01:50:48;101888.03;;;15.22;100.00
46718;BME280;32448;44.960;-0.698;2023-07-13T01:53:17;101887.09;;;15.20;100.00
46718;BME280;32448;44.960;-0.698;2023-07-13T01:55:44;101886.09;;;15.14;100.00
46718;BME280;32448;44.960;-0.698;2023-07-13T01:58:11;101887.84;;;15.13;100.00
46718;BME280;32448;44.960;-0.698;2023-07-13T02:00:38;101890.50;;;15.12;100.00
46718;BME280;32448;44.960;-0.698;2023-07-13T02:03:07;101892.13;;;15.05;100.00
46718;BME280;32448;44.960;-0.698;2023-07-13T02:05:34;101888.56;;;15.03;100.00
46718;BME280;32448;44.960;-0.698;2023-07-13T02:08:02;101886.81;;;15.04;100.00
46718;BME280;32448;44.960;-0.698;2023-07-13T02:10:30;101899.06;;;15.00;100.00
46718;BME280;32448;44.960;-0.698;2023-07-13T02:12:57;101894.72;;;15.02;100.00
46718;BME280;32448;44.960;-0.698;2023-07-13T02:15:24;101895.56;;;15.00;100.00
46718;BME280;32448;44.960;-0.698;2023-07-13T02:17:52;101889.44;;;15.01;100.00
46718;BME280;32448;44.960;-0.698;2023-07-13T02:20:19;101878.81;;;14.96;100.00
46718;BME280;32448;44.960;-0.698;2023-07-13T02:22:46;101891.06;;;14.94;100.00
46718;BME280;32448;44.960;-0.698;2023-07-13T02:25:13;101890.13;;;14.90;100.00
46718;BME280;32448;44.960;-0.698;2023-07-13T02:27:41;101893.50;;;14.83;100.00
46718;BME280;32448;44.960;-0.698;2023-07-13T02:30:09;101896.19;;;14.86;100.00
46718;BME280;32448;44.960;-0.698;2023-07-13T02:32:38;101900.41;;;14.77;100.00
46718;BME280;32448;44.960;-0.698;2023-07-13T02:35:05;101890.63;;;14.68;100.00
46718;BME280;32448;44.960;-0.698;2023-07-13T02:37:36;101892.31;;;14.66;100.00
46718;BME280;32448;44.960;-0.698;2023-07-13T02:40:04;101891.25;;;14.55;100.00
46718;BME280;32448;44.960;-0.698;2023-07-13T02:42:35;101891.97;;;14.46;100.00
46718;BME280;32448;44.960;-0.698;2023-07-13T02:45:05;101889.28;;;14.43;100.00
46718;BME280;32448;44.960;-0.698;2023-07-13T02:47:33;101892.59;;;14.36;100.00
46718;BME280;32448;44.960;-0.698;2023-07-13T02:50:01;101897.84;;;14.35;100.00
46718;BME280;32448;44.960;-0.698;2023-07-13T02:52:28;101893.41;;;14.32;100.00
46718;BME280;32448;44.960;-0.698;2023-07-13T02:54:55;101898.53;;;14.25;100.00
46718;BME280;32448;44.960;-0.698;2023-07-13T02:57:22;101893.06;;;14.15;100.00
46718;BME280;32448;44.960;-0.698;2023-07-13T02:59:49;101896.53;;;14.13;100.00
46718;BME280;32448;44.960;-0.698;2023-07-13T03:02:16;101894.78;;;14.13;100.00
46718;BME280;32448;44.960;-0.698;2023-07-13T03:04:43;101891.59;;;14.30;100.00
46718;BME280;32448;44.960;-0.698;2023-07-13T03:07:11;101891.47;;;14.25;100.00
46718;BME280;32448;44.960;-0.698;2023-07-13T03:09:57;101892.22;;;14.18;100.00
46718;BME280;32448;44.960;-0.698;2023-07-13T03:12:40;101896.50;;;14.11;100.00
46718;BME280;32448;44.960;-0.698;2023-07-13T03:15:17;101900.00;;;14.12;100.00
46718;BME280;32448;44.960;-0.698;2023-07-13T03:17:53;101900.72;;;14.05;100.00
46718;BME280;32448;44.960;-0.698;2023-07-13T03:20:27;101899.72;;;13.98;100.00
46718;BME280;32448;44.960;-0.698;2023-07-13T03:23:00;101898.84;;;13.98;100.00
46718;BME280;32448;44.960;-0.698;2023-07-13T03:25:38;101904.91;;;13.95;100.00
46718;BME280;32448;44.960;-0.698;2023-07-13T03:28:10;101905.03;;;14.01;100.00
46718;BME280;32448;44.960;-0.698;2023-07-13T03:30:38;101912.94;;;14.01;100.00
46718;BME280;32448;44.960;-0.698;2023-07-13T03:33:05;101906.69;;;13.96;100.00
46718;BME280;32448;44.960;-0.698;2023-07-13T03:35:34;101908.34;;;13.91;100.00
46718;BME280;32448;44.960;-0.698;2023-07-13T03:38:01;101909.16;;;13.89;100.00
46718;BME280;32448;44.960;-0.698;2023-07-13T03:40:28;101905.72;;;13.93;100.00
46718;BME280;32448;44.960;-0.698;2023-07-13T03:42:56;101913.53;;;13.88;100.00
46718;BME280;32448;44.960;-0.698;2023-07-13T03:45:23;101907.03;;;13.72;100.00
46718;BME280;32448;44.960;-0.698;2023-07-13T03:47:50;101923.91;;;13.83;100.00
46718;BME280;32448;44.960;-0.698;2023-07-13T03:50:17;101928.94;;;13.73;100.00
46718;BME280;32448;44.960;-0.698;2023-07-13T03:52:45;101928.78;;;13.65;100.00
46718;BME280;32448;44.960;-0.698;2023-07-13T03:55:13;101928.84;;;13.70;100.00
46718;BME280;32448;44.960;-0.698;2023-07-13T03:57:40;101925.97;;;13.58;100.00
46718;BME280;32448;44.960;-0.698;2023-07-13T04:00:08;101926.72;;;13.52;100.00
46718;BME280;32448;44.960;-0.698;2023-07-13T04:02:41;101938.22;;;13.59;100.00
46718;BME280;32448;44.960;-0.698;2023-07-13T04:05:08;101927.53;;;13.49;100.00
46718;BME280;32448;44.960;-0.698;2023-07-13T04:07:35;101935.16;;;13.39;100.00
46718;BME280;32448;44.960;-0.698;2023-07-13T04:10:02;101937.03;;;13.44;100.00
46718;BME280;32448;44.960;-0.698;2023-07-13T04:12:30;101937.84;;;13.42;100.00
46718;BME280;32448;44.960;-0.698;2023-07-13T04:15:00;101925.47;;;13.36;100.00
46718;BME280;32448;44.960;-0.698;2023-07-13T04:17:32;101928.69;;;13.26;100.00
46718;BME280;32448;44.960;-0.698;2023-07-13T04:20:47;101938.22;;;13.21;100.00
46718;BME280;32448;44.960;-0.698;2023-07-13T04:23:33;101944.19;;;13.16;100.00
46718;BME280;32448;44.960;-0.698;2023-07-13T04:26:02;101945.34;;;13.27;100.00
46718;BME280;32448;44.960;-0.698;2023-07-13T04:28:43;101948.94;;;13.30;100.00
46718;BME280;32448;44.960;-0.698;2023-07-13T04:31:12;101950.59;;;13.27;100.00
46718;BME280;32448;44.960;-0.698;2023-07-13T04:33:45;101950.47;;;13.21;100.00
46718;BME280;32448;44.960;-0.698;2023-07-13T04:36:16;101954.81;;;13.20;100.00
46718;BME280;32448;44.960;-0.698;2023-07-13T04:38:45;101950.41;;;13.19;100.00
46718;BME280;32448;44.960;-0.698;2023-07-13T04:41:13;101952.06;;;13.14;100.00
46718;BME280;32448;44.960;-0.698;2023-07-13T04:43:41;101954.69;;;13.14;100.00
46718;BME280;32448;44.960;-0.698;2023-07-13T04:46:11;101957.00;;;13.05;100.00
46718;BME280;32448;44.960;-0.698;2023-07-13T04:48:39;101950.59;;;12.92;100.00
46718;BME280;32448;44.960;-0.698;2023-07-13T04:51:07;101948.81;;;12.93;100.00
46718;BME280;32448;44.960;-0.698;2023-07-13T04:53:34;101955.19;;;13.01;100.00
46718;BME280;32448;44.960;-0.698;2023-07-13T04:56:02;101962.16;;;13.00;100.00
46718;BME280;32448;44.960;-0.698;2023-07-13T04:58:29;101965.69;;;13.01;100.00
46718;BME280;32448;44.960;-0.698;2023-07-13T05:01:02;101962.16;;;13.00;100.00
46718;BME280;32448;44.960;-0.698;2023-07-13T05:03:30;101974.41;;;13.00;100.00
46718;BME280;32448;44.960;-0.698;2023-07-13T05:05:58;101977.78;;;12.96;100.00
46718;BME280;32448;44.960;-0.698;2023-07-13T05:08:25;101972.44;;;12.93;100.00
46718;BME280;32448;44.960;-0.698;2023-07-13T05:10:52;101977.66;;;12.91;100.00
46718;BME280;32448;44.960;-0.698;2023-07-13T05:13:20;101978.72;;;12.98;100.00
46718;BME280;32448;44.960;-0.698;2023-07-13T05:15:54;101981.47;;;13.04;100.00
46718;BME280;32448;44.960;-0.698;2023-07-13T05:18:22;101992.97;;;13.07;100.00
46718;BME280;32448;44.960;-0.698;2023-07-13T05:20:56;101991.19;;;13.06;100.00
46718;BME280;32448;44.960;-0.698;2023-07-13T05:23:23;101995.66;;;13.10;100.00
46718;BME280;32448;44.960;-0.698;2023-07-13T05:25:50;102002.84;;;13.16;100.00
46718;BME280;32448;44.960;-0.698;2023-07-13T05:28:18;101999.44;;;13.20;100.00
46718;BME280;32448;44.960;-0.698;2023-07-13T05:30:46;102016.97;;;13.21;100.00
46718;BME280;32448;44.960;-0.698;2023-07-13T05:33:13;102020.38;;;13.17;100.00
46718;BME280;32448;44.960;-0.698;2023-07-13T05:35:40;102012.44;;;13.16;100.00
46718;BME280;32448;44.960;-0.698;2023-07-13T05:38:07;102010.66;;;13.15;100.00
46718;BME280;32448;44.960;-0.698;2023-07-13T05:40:34;102012.31;;;13.11;100.00
46718;BME280;32448;44.960;-0.698;2023-07-13T05:43:01;102016.66;;;13.10;100.00
46718;BME280;32448;44.960;-0.698;2023-07-13T05:45:28;102013.34;;;13.16;100.00
46718;BME280;32448;44.960;-0.698;2023-07-13T05:47:55;102014.41;;;13.23;100.00
46718;BME280;32448;44.960;-0.698;2023-07-13T05:50:22;102002.97;;;13.21;100.00
46718;BME280;32448;44.960;-0.698;2023-07-13T05:52:49;102017.84;;;13.20;100.00
46718;BME280;32448;44.960;-0.698;2023-07-13T05:55:20;102014.59;;;13.30;100.00
46718;BME280;32448;44.960;-0.698;2023-07-13T05:57:47;102008.59;;;13.34;100.00
46718;BME280;32448;44.960;-0.698;2023-07-13T06:00:14;102019.28;;;13.42;100.00
46718;BME280;32448;44.960;-0.698;2023-07-13T06:02:42;102032.34;;;13.40;100.00
46718;BME280;32448;44.960;-0.698;2023-07-13T06:05:09;102029.06;;;13.47;100.00
46718;BME280;32448;44.960;-0.698;2023-07-13T06:07:37;102034.56;;;13.58;100.00
46718;BME280;32448;44.960;-0.698;2023-07-13T06:10:04;102032.94;;;13.63;100.00
46718;BME280;32448;44.960;-0.698;2023-07-13T06:12:31;102045.47;;;13.75;100.00
46718;BME280;32448;44.960;-0.698;2023-07-13T06:14:58;102043.00;;;13.81;100.00
46718;BME280;32448;44.960;-0.698;2023-07-13T06:17:25;102034.47;;;13.90;100.00
46718;BME280;32448;44.960;-0.698;2023-07-13T06:19:53;102027.66;;;13.99;100.00
46718;BME280;32448;44.960;-0.698;2023-07-13T06:22:20;102031.31;;;14.06;100.00
46718;BME280;32448;44.960;-0.698;2023-07-13T06:24:47;102039.38;;;14.12;100.00
46718;BME280;32448;44.960;-0.698;2023-07-13T06:27:14;102036.00;;;14.19;100.00
46718;BME280;32448;44.960;-0.698;2023-07-13T06:29:41;102041.38;;;14.25;100.00
46718;BME280;32448;44.960;-0.698;2023-07-13T06:32:12;102044.28;;;14.36;100.00
46718;BME280;32448;44.960;-0.698;2023-07-13T06:34:39;102045.41;;;14.45;100.00
46718;BME280;32448;44.960;-0.698;2023-07-13T06:37:08;102050.19;;;14.65;100.00
46718;BME280;32448;44.960;-0.698;2023-07-13T06:39:35;102049.44;;;14.72;100.00
46718;BME280;32448;44.960;-0.698;2023-07-13T06:42:03;102057.81;;;14.94;100.00
46718;BME280;32448;44.960;-0.698;2023-07-13T06:44:30;102056.22;;;15.04;100.00
46718;BME280;32448;44.960;-0.698;2023-07-13T06:46:57;102060.09;;;15.21;100.00
46718;BME280;32448;44.960;-0.698;2023-07-13T06:49:24;102062.06;;;15.33;100.00
46718;BME280;32448;44.960;-0.698;2023-07-13T06:51:51;102057.25;;;15.59;100.00
46718;BME280;32448;44.960;-0.698;2023-07-13T06:54:18;102043.41;;;15.71;100.00
46718;BME280;32448;44.960;-0.698;2023-07-13T06:56:45;102046.19;;;15.80;100.00
46718;BME280;32448;44.960;-0.698;2023-07-13T06:59:12;102043.06;;;16.05;100.00
46718;BME280;32448;44.960;-0.698;2023-07-13T07:01:39;102043.31;;;16.22;100.00
46718;BME280;32448;44.960;-0.698;2023-07-13T07:04:07;102040.09;;;16.43;100.00
46718;BME280;32448;44.960;-0.698;2023-07-13T07:06:35;102040.31;;;16.61;100.00
46718;BME280;32448;44.960;-0.698;2023-07-13T07:09:02;102031.81;;;16.83;100.00
46718;BME280;32448;44.960;-0.698;2023-07-13T07:11:29;102032.78;;;16.93;100.00
46718;BME280;32448;44.960;-0.698;2023-07-13T07:13:56;102035.56;;;17.05;100.00
46718;BME280;32448;44.960;-0.698;2023-07-13T07:16:25;102042.81;;;17.21;100.00
46718;BME280;32448;44.960;-0.698;2023-07-13T07:18:53;102041.19;;;17.38;100.00
46718;BME280;32448;44.960;-0.698;2023-07-13T07:21:20;102038.72;;;17.58;100.00
46718;BME280;32448;44.960;-0.698;2023-07-13T07:23:51;102036.28;;;17.79;100.00
46718;BME280;32448;44.960;-0.698;2023-07-13T07:26:18;102035.63;;;18.08;100.00
46718;BME280;32448;44.960;-0.698;2023-07-13T07:28:49;102040.16;;;18.30;100.00
46718;BME280;32448;44.960;-0.698;2023-07-13T07:31:36;102041.13;;;18.47;100.00
46718;BME280;32448;44.960;-0.698;2023-07-13T07:34:06;102049.16;;;18.60;100.00
46718;BME280;32448;44.960;-0.698;2023-07-13T07:36:34;102035.94;;;18.69;100.00
46718;BME280;32448;44.960;-0.698;2023-07-13T07:39:04;102047.44;;;18.78;100.00
46718;BME280;32448;44.960;-0.698;2023-07-13T07:41:32;102040.44;;;18.94;100.00
46718;BME280;32448;44.960;-0.698;2023-07-13T07:44:05;102040.47;;;19.06;100.00
46718;BME280;32448;44.960;-0.698;2023-07-13T07:46:34;102029.03;;;19.36;100.00
46718;BME280;32448;44.960;-0.698;2023-07-13T07:49:06;102037.88;;;19.38;100.00
46718;BME280;32448;44.960;-0.698;2023-07-13T07:51:33;102041.44;;;19.57;100.00
46718;BME280;32448;44.960;-0.698;2023-07-13T07:54:00;102033.50;;;19.69;100.00
46718;BME280;32448;44.960;-0.698;2023-07-13T07:56:28;102035.28;;;19.75;100.00
46718;BME280;32448;44.960;-0.698;2023-07-13T07:58:58;102037.00;;;19.89;100.00
46718;BME280;32448;44.960;-0.698;2023-07-13T08:01:28;102034.38;;;19.86;100.00
46718;BME280;32448;44.960;-0.698;2023-07-13T08:03:58;102037.03;;;19.97;100.00
46718;BME280;32448;44.960;-0.698;2023-07-13T08:06:28;102045.84;;;20.20;100.00
46718;BME280;32448;44.960;-0.698;2023-07-13T08:09:10;102037.78;;;20.51;100.00
46718;BME280;32448;44.960;-0.698;2023-07-13T08:11:37;102039.53;;;20.55;100.00
46718;BME280;32448;44.960;-0.698;2023-07-13T08:14:07;102041.25;;;20.69;100.00
46718;BME280;32448;44.960;-0.698;2023-07-13T08:16:36;102045.66;;;20.75;100.00
46718;BME280;32448;44.960;-0.698;2023-07-13T08:19:03;102048.34;;;20.72;100.00
46718;BME280;32448;44.960;-0.698;2023-07-13T08:21:31;102043.06;;;20.63;100.00
46718;BME280;32448;44.960;-0.698;2023-07-13T08:23:58;102050.19;;;20.50;100.00
46718;BME280;32448;44.960;-0.698;2023-07-13T08:26:25;102047.56;;;20.40;100.00
46718;BME280;32448;44.960;-0.698;2023-07-13T08:28:52;102042.25;;;20.37;100.00
46718;BME280;32448;44.960;-0.698;2023-07-13T08:31:19;102034.25;;;20.53;100.00
46718;BME280;32448;44.960;-0.698;2023-07-13T08:33:46;102038.59;;;20.73;100.00
46718;BME280;32448;44.960;-0.698;2023-07-13T08:36:13;102028.72;;;20.93;100.00
46718;BME280;32448;44.960;-0.698;2023-07-13T08:38:40;102036.66;;;21.02;100.00
46718;BME280;32448;44.960;-0.698;2023-07-13T08:41:12;102033.00;;;21.23;100.00
46718;BME280;32448;44.960;-0.698;2023-07-13T08:43:44;102018.84;;;21.13;100.00
46718;BME280;32448;44.960;-0.698;2023-07-13T08:46:13;102024.03;;;21.36;100.00
46718;BME280;32448;44.960;-0.698;2023-07-13T08:48:44;102015.16;;;21.41;100.00
46718;BME280;32448;44.960;-0.698;2023-07-13T08:51:29;102008.78;;;21.59;100.00
46718;BME280;32448;44.960;-0.698;2023-07-13T08:54:03;102010.56;;;21.59;100.00
46718;BME280;32448;44.960;-0.698;2023-07-13T08:56:32;102013.81;;;21.88;100.00
46718;BME280;32448;44.960;-0.698;2023-07-13T08:59:04;102004.94;;;21.89;100.00
46718;BME280;32448;44.960;-0.698;2023-07-13T09:06:34;102004.94;;;21.89;100.00
46718;BME280;32448;44.960;-0.698;2023-07-13T09:09:10;102006.00;;;21.73;100.00
46718;BME280;32448;44.960;-0.698;2023-07-13T09:11:44;102004.88;;;21.95;100.00
46718;BME280;32448;44.960;-0.698;2023-07-13T09:14:33;101996.69;;;22.18;100.00
46718;BME280;32448;44.960;-0.698;2023-07-13T09:17:03;101992.09;;;22.31;100.00
46718;BME280;32448;44.960;-0.698;2023-07-13T09:19:31;101995.41;;;22.49;100.00
46718;BME280;32448;44.960;-0.698;2023-07-13T09:22:02;102003.94;;;22.77;100.00
46718;BME280;32448;44.960;-0.698;2023-07-13T09:24:38;102000.06;;;23.00;100.00
46718;BME280;32448;44.960;-0.698;2023-07-13T09:27:09;102010.94;;;22.86;100.00
46718;BME280;32448;44.960;-0.698;2023-07-13T09:29:41;102017.31;;;22.74;100.00
46718;BME280;32448;44.960;-0.698;2023-07-13T09:32:10;102013.72;;;22.77;100.00
46718;BME280;32448;44.960;-0.698;2023-07-13T09:34:39;102019.03;;;22.80;100.00
46718;BME280;32448;44.960;-0.698;2023-07-13T09:37:06;102012.03;;;22.70;100.00
46718;BME280;32448;44.960;-0.698;2023-07-13T09:39:34;102012.63;;;22.92;100.00
46718;BME280;32448;44.960;-0.698;2023-07-13T09:42:07;102014.19;;;23.08;100.00
46718;BME280;32448;44.960;-0.698;2023-07-13T09:44:53;102011.63;;;22.99;100.00
46718;BME280;32448;44.960;-0.698;2023-07-13T09:47:23;102015.84;;;23.16;100.00
46718;BME280;32448;44.960;-0.698;2023-07-13T09:49:56;102013.97;;;23.20;100.00
46718;BME280;32448;44.960;-0.698;2023-07-13T09:52:39;102015.03;;;23.10;100.00
46718;BME280;32448;44.960;-0.698;2023-07-13T09:55:22;102013.91;;;23.24;100.00
46718;BME280;32448;44.960;-0.698;2023-07-13T09:57:50;102013.72;;;23.38;100.00
46718;BME280;32448;44.960;-0.698;2023-07-13T10:00:20;102007.19;;;23.57;100.00
46718;BME280;32448;44.960;-0.698;2023-07-13T10:02:50;102007.13;;;23.62;100.00
46718;BME280;32448;44.960;-0.698;2023-07-13T10:05:25;102017.50;;;23.77;100.00
46718;BME280;32448;44.960;-0.698;2023-07-13T10:07:52;102013.03;;;23.78;100.00
46718;BME280;32448;44.960;-0.698;2023-07-13T10:10:22;102015.25;;;24.04;100.00
46718;BME280;32448;44.960;-0.698;2023-07-13T10:12:49;102013.75;;;23.87;100.00
46718;BME280;32448;44.960;-0.698;2023-07-13T10:15:19;102014.75;;;23.82;100.00
46718;BME280;32448;44.960;-0.698;2023-07-13T10:17:50;102021.63;;;23.97;100.00
46718;BME280;32448;44.960;-0.698;2023-07-13T10:20:18;102017.28;;;23.89;100.00
46718;BME280;32448;44.960;-0.698;2023-07-13T10:22:52;102012.69;;;23.98;100.00
46718;BME280;32448;44.960;-0.698;2023-07-13T10:25:22;102014.41;;;24.00;100.00
46718;BME280;32448;44.960;-0.698;2023-07-13T10:27:50;102020.16;;;23.79;100.00
46718;BME280;32448;44.960;-0.698;2023-07-13T10:32:52;102019.16;;;23.86;100.00
46718;BME280;32448;44.960;-0.698;2023-07-13T10:35:21;102017.00;;;24.05;100.00
46718;BME280;32448;44.960;-0.698;2023-07-13T10:37:53;102006.84;;;24.25;100.00
46718;BME280;32448;44.960;-0.698;2023-07-13T10:40:24;102013.16;;;24.19;100.00
46718;BME280;32448;44.960;-0.698;2023-07-13T10:42:54;102007.44;;;24.41;100.00
46718;BME280;32448;44.960;-0.698;2023-07-13T10:45:23;102002.69;;;24.53;100.00
46718;BME280;32448;44.960;-0.698;2023-07-13T10:47:51;102001.75;;;24.56;100.00
46718;BME280;32448;44.960;-0.698;2023-07-13T10:50:23;101995.06;;;24.75;100.00
46718;BME280;32448;44.960;-0.698;2023-07-13T10:52:52;101997.47;;;24.87;100.00
46718;BME280;32448;44.960;-0.698;2023-07-13T10:55:35;102003.16;;;24.74;100.00
46718;BME280;32448;44.960;-0.698;2023-07-13T11:01:14;102003.31;;;24.66;100.00
46718;BME280;32448;44.960;-0.698;2023-07-13T11:03:50;102008.97;;;24.06;97.37
46718;BME280;32448;44.960;-0.698;2023-07-13T11:06:39;102005.00;;;24.28;94.12
46718;BME280;32448;44.960;-0.698;2023-07-13T11:09:18;102000.88;;;24.54;100.00
46718;BME280;32448;44.960;-0.698;2023-07-13T11:11:45;101991.97;;;24.53;100.00
46718;BME280;32448;44.960;-0.698;2023-07-13T11:16:58;101996.56;;;24.88;100.00
46718;BME280;32448;44.960;-0.698;2023-07-13T11:19:45;101998.81;;;25.08;100.00
46718;BME280;32448;44.960;-0.698;2023-07-13T11:22:21;101991.81;;;25.39;100.00
46718;BME280;32448;44.960;-0.698;2023-07-13T11:27:25;101991.31;;;25.22;90.12
46718;BME280;32448;44.960;-0.698;2023-07-13T11:30:06;101981.28;;;25.32;100.00
46718;BME280;32448;44.960;-0.698;2023-07-13T11:32:34;101987.00;;;25.52;100.00
46718;BME280;32448;44.960;-0.698;2023-07-13T11:35:01;101988.63;;;25.24;83.75
46718;BME280;32448;44.960;-0.698;2023-07-13T11:37:29;101985.09;;;25.22;100.00
46718;BME280;32448;44.960;-0.698;2023-07-13T11:39:57;101972.03;;;25.08;100.00
46718;BME280;32448;44.960;-0.698;2023-07-13T11:42:24;101973.50;;;24.84;97.35
46718;BME280;32448;44.960;-0.698;2023-07-13T11:44:52;101971.03;;;25.14;100.00
46718;BME280;32448;44.960;-0.698;2023-07-13T11:47:34;101966.44;;;25.53;100.00
46718;BME280;32448;44.960;-0.698;2023-07-13T11:50:16;101961.53;;;25.71;100.00
46718;BME280;32448;44.960;-0.698;2023-07-13T11:52:44;101963.63;;;25.93;100.00
46718;BME280;32448;44.960;-0.698;2023-07-13T11:55:16;101966.16;;;25.97;100.00
46718;BME280;32448;44.960;-0.698;2023-07-13T11:57:45;101964.19;;;26.05;100.00
46718;BME280;32448;44.960;-0.698;2023-07-13T12:00:15;101960.47;;;26.09;100.00
46718;BME280;32448;44.960;-0.698;2023-07-13T12:02:44;101959.38;;;26.17;100.00
46718;BME280;32448;44.960;-0.698;2023-07-13T12:05:12;101958.84;;;26.04;79.31
46718;BME280;32448;44.960;-0.698;2023-07-13T12:07:40;101956.75;;;26.15;100.00
46718;BME280;32448;44.960;-0.698;2023-07-13T12:12:35;101951.59;;;26.40;100.00
46718;BME280;32448;44.960;-0.698;2023-07-13T12:15:07;101952.69;;;26.33;85.72
46718;BME280;32448;44.960;-0.698;2023-07-13T12:17:36;101954.50;;;26.31;93.96
46718;BME280;32448;44.960;-0.698;2023-07-13T12:20:07;101948.34;;;26.29;99.67
46718;BME280;32448;44.960;-0.698;2023-07-13T12:22:41;101950.19;;;26.25;100.00
46718;BME280;32448;44.960;-0.698;2023-07-13T12:25:12;101959.50;;;26.43;100.00
46718;BME280;32448;44.960;-0.698;2023-07-13T12:27:39;101954.31;;;26.38;100.00
46718;BME280;32448;44.960;-0.698;2023-07-13T12:33:00;101947.53;;;26.55;94.18
46718;BME280;32448;44.960;-0.698;2023-07-13T12:35:29;101944.88;;;26.24;72.63
46718;BME280;32448;44.960;-0.698;2023-07-13T12:38:02;101943.75;;;26.32;91.46
46718;BME280;32448;44.960;-0.698;2023-07-13T12:40:33;101939.84;;;26.13;82.08
46718;BME280;32448;44.960;-0.698;2023-07-13T12:43:03;101942.75;;;26.36;76.04
46718;BME280;32448;44.960;-0.698;2023-07-13T12:45:33;101947.28;;;26.02;81.24
46718;BME280;32448;44.960;-0.698;2023-07-13T12:48:05;101946.16;;;26.10;94.99
46718;BME280;32448;44.960;-0.698;2023-07-13T12:50:37;101944.69;;;25.99;78.92
46718;BME280;32448;44.960;-0.698;2023-07-13T12:53:19;101941.44;;;25.54;88.35
46718;BME280;32448;44.960;-0.698;2023-07-13T12:55:49;101936.38;;;25.43;90.11
46718;BME280;32448;44.960;-0.698;2023-07-13T12:58:25;101934.28;;;25.54;89.73
46718;BME280;32448;44.960;-0.698;2023-07-13T13:00:57;101928.56;;;25.69;93.26
46718;BME280;32448;44.960;-0.698;2023-07-13T13:06:04;101934.31;;;25.87;98.75
46718;BME280;32448;44.960;-0.698;2023-07-13T13:08:35;101934.94;;;25.96;89.86